createdAt,value
2022-12-09T00:00:00.286Z,83.16
2022-12-09T00:00:10.792Z,83.16
2022-12-09T00:00:20.714Z,83.16
2022-12-09T00:00:31.079Z,83.16
2022-12-09T00:00:41.492Z,83.16
2022-12-09T00:00:51.728Z,83.16
2022-12-09T00:01:01.919Z,83.16
2022-12-09T00:01:12.240Z,83.16
2022-12-09T00:01:22.581Z,83.06
2022-12-09T00:01:32.934Z,83.06
2022-12-09T00:01:43.130Z,83.06
2022-12-09T00:01:53.363Z,83.06
2022-12-09T00:02:03.669Z,83.06
2022-12-09T00:02:14.303Z,83.06
2022-12-09T00:02:24.419Z,83.01
2022-12-09T00:02:34.761Z,83.06
2022-12-09T00:02:45.083Z,83.06
2022-12-09T00:02:55.361Z,83.06
2022-12-09T00:03:05.497Z,83.06
2022-12-09T00:03:20.090Z,83.06
2022-12-09T00:03:27.422Z,83.06
2022-12-09T00:03:37.010Z,83.06
2022-12-09T00:03:47.249Z,83.06
2022-12-09T00:03:57.339Z,83.06
2022-12-09T00:04:07.989Z,83.06
2022-12-09T00:04:18.107Z,83.16
2022-12-09T00:04:28.435Z,83.16
2022-12-09T00:04:38.654Z,83.16
2022-12-09T00:04:49.091Z,83.23
2022-12-09T00:04:59.470Z,83.37
2022-12-09T00:05:09.505Z,83.44
2022-12-09T00:05:20.057Z,83.47
2022-12-09T00:05:30.118Z,83.47
2022-12-09T00:05:40.581Z,83.47
2022-12-09T00:05:50.993Z,83.47
2022-12-09T00:06:01.037Z,83.47
2022-12-09T00:06:11.416Z,83.58
2022-12-09T00:06:21.609Z,83.58
2022-12-09T00:06:31.907Z,83.64
2022-12-09T00:06:42.196Z,83.68
2022-12-09T00:06:52.465Z,83.68
2022-12-09T00:07:02.684Z,83.68
2022-12-09T00:07:12.929Z,83.68
2022-12-09T00:07:23.145Z,83.54
2022-12-09T00:07:33.384Z,83.58
2022-12-09T00:07:43.717Z,83.54
2022-12-09T00:07:54.016Z,83.58
2022-12-09T00:08:04.491Z,83.47
2022-12-09T00:08:14.564Z,83.47
2022-12-09T00:08:24.864Z,83.47
2022-12-09T00:08:35.391Z,83.54
2022-12-09T00:08:45.538Z,83.58
2022-12-09T00:08:56.081Z,83.58
2022-12-09T00:09:06.384Z,83.58
2022-12-09T00:09:16.858Z,83.58
2022-12-09T00:09:26.713Z,83.54
2022-12-09T00:09:37.209Z,83.58
2022-12-09T00:09:47.269Z,83.47
2022-12-09T00:09:57.531Z,83.44
2022-12-09T00:10:08.104Z,83.44
2022-12-09T00:10:18.102Z,83.47
2022-12-09T00:10:28.558Z,83.47
2022-12-09T00:10:38.783Z,83.47
2022-12-09T00:10:48.982Z,83.47
2022-12-09T00:10:59.509Z,83.47
2022-12-09T00:11:09.502Z,83.47
2022-12-09T00:11:19.787Z,83.47
2022-12-09T00:11:30.090Z,83.47
2022-12-09T00:11:40.328Z,83.44
2022-12-09T00:11:50.766Z,83.47
2022-12-09T00:12:00.960Z,83.44
2022-12-09T00:12:11.241Z,83.47
2022-12-09T00:12:21.449Z,83.47
2022-12-09T00:12:31.874Z,83.47
2022-12-09T00:12:42.110Z,83.47
2022-12-09T00:12:52.320Z,83.47
2022-12-09T00:13:02.858Z,83.47
2022-12-09T00:13:12.843Z,83.47
2022-12-09T00:13:23.096Z,83.47
2022-12-09T00:13:33.572Z,83.47
2022-12-09T00:13:43.675Z,83.47
2022-12-09T00:13:53.885Z,83.47
2022-12-09T00:14:04.188Z,83.47
2022-12-09T00:14:14.397Z,83.47
2022-12-09T00:14:24.617Z,83.47
2022-12-09T00:14:35.039Z,83.44
2022-12-09T00:14:45.233Z,83.47
2022-12-09T00:14:55.578Z,83.47
2022-12-09T00:15:06.009Z,83.58
2022-12-09T00:15:16.012Z,83.47
2022-12-09T00:15:26.311Z,83.47
2022-12-09T00:15:36.828Z,83.47
2022-12-09T00:15:47.003Z,83.47
2022-12-09T00:15:57.522Z,83.44
2022-12-09T00:16:07.617Z,83.47
2022-12-09T00:16:18.184Z,83.47
2022-12-09T00:16:28.261Z,83.37
2022-12-09T00:16:38.629Z,83.47
2022-12-09T00:16:48.974Z,83.47
2022-12-09T00:16:59.102Z,83.47
2022-12-09T00:17:09.512Z,83.44
2022-12-09T00:17:19.813Z,83.47
2022-12-09T00:17:30.147Z,83.37
2022-12-09T00:17:40.455Z,83.33
2022-12-09T00:17:50.664Z,83.37
2022-12-09T00:18:00.946Z,83.33
2022-12-09T00:18:11.187Z,83.33
2022-12-09T00:18:21.398Z,83.37
2022-12-09T00:18:31.634Z,83.37
2022-12-09T00:18:41.913Z,83.33
2022-12-09T00:18:52.400Z,83.33
2022-12-09T00:19:02.404Z,83.37
2022-12-09T00:19:12.647Z,83.37
2022-12-09T00:19:22.924Z,83.37
2022-12-09T00:19:33.381Z,83.37
2022-12-09T00:19:43.410Z,83.37
2022-12-09T00:19:53.706Z,83.23
2022-12-09T00:20:04.211Z,83.37
2022-12-09T00:20:14.151Z,83.37
2022-12-09T00:20:24.387Z,83.33
2022-12-09T00:20:34.810Z,83.37
2022-12-09T00:20:45.015Z,83.33
2022-12-09T00:20:55.249Z,83.33
2022-12-09T00:21:05.690Z,83.33
2022-12-09T00:21:16.001Z,83.47
2022-12-09T00:21:26.281Z,83.47
2022-12-09T00:21:36.777Z,83.47
2022-12-09T00:21:46.925Z,83.47
2022-12-09T00:21:57.170Z,83.47
2022-12-09T00:22:07.370Z,83.47
2022-12-09T00:22:17.644Z,83.47
2022-12-09T00:22:27.942Z,83.47
2022-12-09T00:22:38.349Z,83.47
2022-12-09T00:22:48.694Z,83.47
2022-12-09T00:22:58.878Z,83.47
2022-12-09T00:23:09.248Z,83.44
2022-12-09T00:23:19.442Z,83.47
2022-12-09T00:23:29.815Z,83.44
2022-12-09T00:23:40.049Z,83.47
2022-12-09T00:23:50.265Z,83.47
2022-12-09T00:24:00.651Z,83.44
2022-12-09T00:24:10.932Z,83.47
2022-12-09T00:24:21.351Z,83.47
2022-12-09T00:24:31.799Z,83.47
2022-12-09T00:24:42.009Z,83.44
2022-12-09T00:24:52.363Z,83.47
2022-12-09T00:25:02.784Z,83.47
2022-12-09T00:25:12.905Z,83.47
2022-12-09T00:25:23.102Z,83.47
2022-12-09T00:25:33.363Z,83.47
2022-12-09T00:25:43.654Z,83.47
2022-12-09T00:25:53.839Z,83.47
2022-12-09T00:26:04.207Z,83.47
2022-12-09T00:26:14.466Z,83.47
2022-12-09T00:26:24.904Z,83.47
2022-12-09T00:26:34.903Z,83.47
2022-12-09T00:26:45.194Z,83.37
2022-12-09T00:26:55.545Z,83.37
2022-12-09T00:27:05.830Z,83.37
2022-12-09T00:27:16.024Z,83.37
2022-12-09T00:27:26.261Z,83.37
2022-12-09T00:27:36.708Z,83.37
2022-12-09T00:27:47.134Z,83.37
2022-12-09T00:27:57.334Z,83.37
2022-12-09T00:28:07.807Z,83.47
2022-12-09T00:28:18.027Z,83.47
2022-12-09T00:28:28.066Z,83.54
2022-12-09T00:28:38.255Z,83.58
2022-12-09T00:28:48.535Z,83.58
2022-12-09T00:28:58.832Z,83.58
2022-12-09T00:29:09.052Z,83.58
2022-12-09T00:29:19.404Z,83.58
2022-12-09T00:29:29.609Z,83.58
2022-12-09T00:29:39.822Z,83.47
2022-12-09T00:29:50.058Z,83.47
2022-12-09T00:30:00.298Z,83.47
2022-12-09T00:30:11.196Z,83.47
2022-12-09T00:30:21.002Z,83.47
2022-12-09T00:30:31.187Z,83.47
2022-12-09T00:30:41.669Z,83.47
2022-12-09T00:30:51.744Z,83.47
2022-12-09T00:31:02.010Z,83.47
2022-12-09T00:31:12.338Z,83.47
2022-12-09T00:31:22.568Z,83.47
2022-12-09T00:31:33.318Z,83.47
2022-12-09T00:31:43.311Z,83.47
2022-12-09T00:31:53.472Z,83.47
2022-12-09T00:32:03.776Z,83.44
2022-12-09T00:32:14.401Z,83.47
2022-12-09T00:32:24.749Z,83.47
2022-12-09T00:32:34.909Z,83.44
2022-12-09T00:32:45.488Z,83.44
2022-12-09T00:32:55.755Z,83.47
2022-12-09T00:33:05.958Z,83.47
2022-12-09T00:33:16.452Z,83.47
2022-12-09T00:33:26.432Z,83.47
2022-12-09T00:33:36.682Z,83.47
2022-12-09T00:33:46.947Z,83.44
2022-12-09T00:33:57.437Z,83.47
2022-12-09T00:34:07.424Z,83.47
2022-12-09T00:34:17.907Z,83.47
2022-12-09T00:34:28.010Z,83.37
2022-12-09T00:34:38.217Z,83.47
2022-12-09T00:34:48.571Z,83.47
2022-12-09T00:34:58.834Z,83.47
2022-12-09T00:35:09.166Z,83.47
2022-12-09T00:35:19.392Z,83.47
2022-12-09T00:35:29.880Z,83.47
2022-12-09T00:35:39.984Z,83.47
2022-12-09T00:35:50.320Z,83.47
2022-12-09T00:36:00.514Z,83.47
2022-12-09T00:36:10.752Z,83.47
2022-12-09T00:36:21.172Z,83.47
2022-12-09T00:36:31.381Z,83.58
2022-12-09T00:36:41.834Z,83.54
2022-12-09T00:36:52.012Z,83.58
2022-12-09T00:37:02.373Z,83.54
2022-12-09T00:37:12.562Z,83.54
2022-12-09T00:37:23.025Z,83.58
2022-12-09T00:37:33.298Z,83.58
2022-12-09T00:37:43.771Z,83.58
2022-12-09T00:37:54.012Z,83.58
2022-12-09T00:38:03.995Z,83.58
2022-12-09T00:38:14.225Z,83.54
2022-12-09T00:38:24.468Z,83.58
2022-12-09T00:38:34.713Z,83.58
2022-12-09T00:38:45.076Z,83.58
2022-12-09T00:38:55.507Z,83.58
2022-12-09T00:39:05.558Z,83.58
2022-12-09T00:39:15.743Z,83.58
2022-12-09T00:39:26.035Z,83.58
2022-12-09T00:39:36.229Z,83.58
2022-12-09T00:39:46.487Z,83.58
2022-12-09T00:39:56.759Z,83.58
2022-12-09T00:40:07.197Z,83.58
2022-12-09T00:40:17.174Z,83.58
2022-12-09T00:40:27.406Z,83.58
2022-12-09T00:40:37.663Z,83.58
2022-12-09T00:40:47.959Z,83.58
2022-12-09T00:40:58.400Z,83.68
2022-12-09T00:41:08.487Z,83.68
2022-12-09T00:41:18.705Z,83.68
2022-12-09T00:41:28.939Z,83.68
2022-12-09T00:41:39.430Z,83.68
2022-12-09T00:41:49.405Z,83.68
2022-12-09T00:41:59.647Z,83.68
2022-12-09T00:42:09.882Z,83.68
2022-12-09T00:42:20.227Z,83.68
2022-12-09T00:42:30.404Z,83.58
2022-12-09T00:42:40.884Z,83.58
2022-12-09T00:42:51.062Z,83.54
2022-12-09T00:43:01.275Z,83.58
2022-12-09T00:43:11.531Z,83.58
2022-12-09T00:43:21.761Z,83.58
2022-12-09T00:43:32.154Z,83.58
2022-12-09T00:43:42.375Z,83.58
2022-12-09T00:43:52.617Z,83.58
2022-12-09T00:44:02.845Z,83.58
2022-12-09T00:44:13.242Z,83.58
2022-12-09T00:44:23.570Z,83.58
2022-12-09T00:44:33.755Z,83.54
2022-12-09T00:44:44.181Z,83.58
2022-12-09T00:44:54.594Z,83.58
2022-12-09T00:45:05.019Z,83.54
2022-12-09T00:45:15.009Z,83.58
2022-12-09T00:45:25.265Z,83.58
2022-12-09T00:45:35.482Z,83.58
2022-12-09T00:45:45.906Z,83.58
2022-12-09T00:45:56.138Z,83.58
2022-12-09T00:46:06.388Z,83.54
2022-12-09T00:46:16.731Z,83.58
2022-12-09T00:46:27.098Z,83.58
2022-12-09T00:46:37.363Z,83.58
2022-12-09T00:46:47.706Z,83.58
2022-12-09T00:46:58.034Z,83.58
2022-12-09T00:47:08.650Z,83.58
2022-12-09T00:47:18.835Z,83.58
2022-12-09T00:47:29.139Z,83.58
2022-12-09T00:47:39.475Z,83.54
2022-12-09T00:47:49.966Z,83.58
2022-12-09T00:48:00.197Z,83.58
2022-12-09T00:48:10.494Z,83.58
2022-12-09T00:48:20.867Z,83.58
2022-12-09T00:48:31.103Z,83.58
2022-12-09T00:48:41.332Z,83.58
2022-12-09T00:48:51.550Z,83.58
2022-12-09T00:49:01.791Z,83.58
2022-12-09T00:49:12.139Z,83.58
2022-12-09T00:49:22.371Z,83.58
2022-12-09T00:49:32.658Z,83.58
2022-12-09T00:49:42.876Z,83.58
2022-12-09T00:49:53.095Z,83.58
2022-12-09T00:50:03.615Z,83.68
2022-12-09T00:50:13.740Z,83.68
2022-12-09T00:50:23.949Z,83.68
2022-12-09T00:50:34.394Z,83.68
2022-12-09T00:50:44.771Z,83.68
2022-12-09T00:50:55.014Z,83.68
2022-12-09T00:51:05.320Z,83.68
2022-12-09T00:51:15.577Z,83.64
2022-12-09T00:51:25.809Z,83.68
2022-12-09T00:51:36.183Z,83.68
2022-12-09T00:51:46.364Z,83.68
2022-12-09T00:51:56.628Z,83.68
2022-12-09T00:52:06.892Z,83.68
2022-12-09T00:52:17.086Z,83.68
2022-12-09T00:52:27.404Z,83.68
2022-12-09T00:52:37.717Z,83.68
2022-12-09T00:52:47.911Z,83.68
2022-12-09T00:52:58.265Z,83.68
2022-12-09T00:53:08.526Z,83.68
2022-12-09T00:53:18.836Z,83.68
2022-12-09T00:53:29.222Z,83.68
2022-12-09T00:53:39.258Z,83.68
2022-12-09T00:53:49.535Z,83.68
2022-12-09T00:53:59.819Z,83.58
2022-12-09T00:54:10.247Z,83.58
2022-12-09T00:54:20.439Z,83.58
2022-12-09T00:54:30.869Z,83.58
2022-12-09T00:54:40.946Z,83.58
2022-12-09T00:54:51.364Z,83.54
2022-12-09T00:55:01.855Z,83.58
2022-12-09T00:55:11.940Z,83.58
2022-12-09T00:55:22.367Z,83.58
2022-12-09T00:55:32.555Z,83.58
2022-12-09T00:55:42.926Z,83.58
2022-12-09T00:55:53.206Z,83.58
2022-12-09T00:56:03.402Z,83.58
2022-12-09T00:56:13.650Z,83.58
2022-12-09T00:56:23.883Z,83.58
2022-12-09T00:56:34.185Z,83.54
2022-12-09T00:56:44.531Z,83.58
2022-12-09T00:56:54.921Z,83.68
2022-12-09T00:57:05.143Z,83.58
2022-12-09T00:57:15.344Z,83.58
2022-12-09T00:57:25.761Z,83.58
2022-12-09T00:57:36.036Z,83.58
2022-12-09T00:57:46.388Z,83.58
2022-12-09T00:57:56.880Z,83.58
2022-12-09T00:58:07.016Z,83.58
2022-12-09T00:58:17.272Z,83.58
2022-12-09T00:58:27.692Z,83.58
2022-12-09T00:58:37.900Z,83.58
2022-12-09T00:58:48.132Z,83.58
2022-12-09T00:58:58.647Z,83.58
2022-12-09T00:59:08.899Z,83.58
2022-12-09T00:59:19.089Z,83.58
2022-12-09T00:59:29.352Z,83.58
2022-12-09T00:59:39.589Z,83.58
2022-12-09T00:59:49.941Z,83.54
2022-12-09T01:00:00.266Z,83.58
2022-12-09T01:00:11.104Z,83.58
2022-12-09T01:00:21.072Z,83.58
2022-12-09T01:00:31.099Z,83.58
2022-12-09T01:00:41.470Z,83.58
2022-12-09T01:00:51.774Z,83.58
2022-12-09T01:01:01.956Z,83.58
2022-12-09T01:01:12.486Z,83.58
2022-12-09T01:01:22.712Z,83.58
2022-12-09T01:01:33.153Z,83.58
2022-12-09T01:01:43.338Z,83.58
2022-12-09T01:01:53.773Z,83.58
2022-12-09T01:02:04.054Z,83.58
2022-12-09T01:02:14.881Z,83.68
2022-12-09T01:02:24.869Z,83.68
2022-12-09T01:02:35.519Z,83.68
2022-12-09T01:02:45.450Z,83.68
2022-12-09T01:02:56.056Z,83.68
2022-12-09T01:03:06.009Z,83.64
2022-12-09T01:03:16.390Z,83.68
2022-12-09T01:03:26.883Z,83.64
2022-12-09T01:03:36.964Z,83.68
2022-12-09T01:03:47.234Z,83.68
2022-12-09T01:03:57.682Z,83.68
2022-12-09T01:04:07.898Z,83.68
2022-12-09T01:04:18.075Z,83.68
2022-12-09T01:04:28.511Z,83.68
2022-12-09T01:04:38.828Z,83.68
2022-12-09T01:04:49.209Z,83.68
2022-12-09T01:04:59.607Z,83.68
2022-12-09T01:05:10.065Z,83.68
2022-12-09T01:05:20.208Z,83.68
2022-12-09T01:05:30.540Z,83.68
2022-12-09T01:05:40.847Z,83.68
2022-12-09T01:05:51.080Z,83.68
2022-12-09T01:06:01.288Z,83.78
2022-12-09T01:06:11.521Z,83.78
2022-12-09T01:06:22.016Z,83.78
2022-12-09T01:06:32.071Z,83.78
2022-12-09T01:06:42.308Z,83.78
2022-12-09T01:06:52.542Z,83.78
2022-12-09T01:07:02.951Z,83.78
2022-12-09T01:07:13.381Z,83.78
2022-12-09T01:07:23.778Z,83.78
2022-12-09T01:07:33.977Z,83.78
2022-12-09T01:07:44.299Z,83.78
2022-12-09T01:07:54.624Z,83.78
2022-12-09T01:08:04.992Z,83.75
2022-12-09T01:08:15.295Z,83.78
2022-12-09T01:08:25.782Z,83.78
2022-12-09T01:08:38.880Z,83.78
2022-12-09T01:08:46.439Z,83.78
2022-12-09T01:08:56.578Z,83.78
2022-12-09T01:09:06.966Z,83.78
2022-12-09T01:09:17.364Z,83.78
2022-12-09T01:09:27.758Z,83.78
2022-12-09T01:09:38.461Z,83.78
2022-12-09T01:09:48.366Z,83.68
2022-12-09T01:09:58.605Z,83.68
2022-12-09T01:10:09.197Z,83.68
2022-12-09T01:10:19.247Z,83.68
2022-12-09T01:10:29.545Z,83.64
2022-12-09T01:10:39.811Z,83.68
2022-12-09T01:10:50.209Z,83.68
2022-12-09T01:11:00.230Z,83.68
2022-12-09T01:11:10.485Z,83.68
2022-12-09T01:11:21.055Z,83.68
2022-12-09T01:11:31.106Z,83.68
2022-12-09T01:11:41.339Z,83.78
2022-12-09T01:11:51.584Z,83.78
2022-12-09T01:12:02.077Z,83.78
2022-12-09T01:12:12.191Z,83.78
2022-12-09T01:12:22.411Z,83.78
2022-12-09T01:12:32.665Z,83.78
2022-12-09T01:12:43.154Z,83.78
2022-12-09T01:12:53.149Z,83.78
2022-12-09T01:13:03.389Z,83.89
2022-12-09T01:13:13.927Z,83.78
2022-12-09T01:13:23.956Z,83.78
2022-12-09T01:13:34.182Z,83.78
2022-12-09T01:13:44.684Z,83.78
2022-12-09T01:13:54.731Z,83.78
2022-12-09T01:14:05.225Z,83.78
2022-12-09T01:14:15.405Z,83.78
2022-12-09T01:14:25.818Z,83.75
2022-12-09T01:14:36.055Z,83.78
2022-12-09T01:14:46.261Z,83.78
2022-12-09T01:14:56.614Z,83.78
2022-12-09T01:15:06.973Z,83.78
2022-12-09T01:15:17.383Z,83.78
2022-12-09T01:15:27.888Z,83.78
2022-12-09T01:15:38.163Z,83.78
2022-12-09T01:15:48.404Z,83.78
2022-12-09T01:15:58.575Z,83.78
2022-12-09T01:16:08.966Z,83.78
2022-12-09T01:16:19.190Z,83.75
2022-12-09T01:16:29.717Z,83.78
2022-12-09T01:16:40.171Z,83.78
2022-12-09T01:16:50.546Z,83.78
2022-12-09T01:17:00.710Z,83.78
2022-12-09T01:17:11.021Z,83.78
2022-12-09T01:17:21.294Z,83.78
2022-12-09T01:17:31.704Z,83.78
2022-12-09T01:17:41.807Z,83.78
2022-12-09T01:17:52.257Z,83.89
2022-12-09T01:18:02.773Z,83.89
2022-12-09T01:18:12.820Z,83.89
2022-12-09T01:18:23.052Z,83.78
2022-12-09T01:18:33.371Z,83.78
2022-12-09T01:18:43.563Z,83.78
2022-12-09T01:18:54.096Z,83.78
2022-12-09T01:19:04.254Z,83.78
2022-12-09T01:19:14.702Z,83.78
2022-12-09T01:19:24.681Z,83.78
2022-12-09T01:19:34.930Z,83.78
2022-12-09T01:19:45.158Z,83.78
2022-12-09T01:19:55.427Z,83.78
2022-12-09T01:20:06.457Z,83.78
2022-12-09T01:20:16.161Z,83.78
2022-12-09T01:20:26.358Z,83.78
2022-12-09T01:20:36.904Z,83.78
2022-12-09T01:20:47.008Z,83.78
2022-12-09T01:20:57.241Z,83.78
2022-12-09T01:21:07.617Z,83.78
2022-12-09T01:21:17.825Z,83.78
2022-12-09T01:21:28.056Z,83.78
2022-12-09T01:21:38.410Z,83.78
2022-12-09T01:21:48.675Z,83.78
2022-12-09T01:21:58.890Z,83.78
2022-12-09T01:22:09.106Z,83.78
2022-12-09T01:22:19.637Z,83.78
2022-12-09T01:22:29.615Z,83.78
2022-12-09T01:22:40.195Z,83.78
2022-12-09T01:22:50.456Z,83.78
2022-12-09T01:23:00.621Z,83.78
2022-12-09T01:23:10.957Z,83.78
2022-12-09T01:23:21.139Z,83.78
2022-12-09T01:23:31.465Z,83.78
2022-12-09T01:23:41.845Z,83.78
2022-12-09T01:23:52.067Z,83.78
2022-12-09T01:24:02.328Z,83.78
2022-12-09T01:24:12.564Z,83.78
2022-12-09T01:24:22.795Z,83.78
2022-12-09T01:24:33.047Z,83.78
2022-12-09T01:24:43.272Z,83.78
2022-12-09T01:24:53.554Z,83.78
2022-12-09T01:25:04.069Z,83.78
2022-12-09T01:25:14.157Z,83.78
2022-12-09T01:25:24.346Z,83.78
2022-12-09T01:25:34.822Z,83.78
2022-12-09T01:25:44.941Z,83.78
2022-12-09T01:25:55.140Z,83.78
2022-12-09T01:26:05.600Z,83.78
2022-12-09T01:26:15.973Z,83.78
2022-12-09T01:26:26.465Z,83.78
2022-12-09T01:26:36.497Z,83.78
2022-12-09T01:26:47.245Z,83.78
2022-12-09T01:26:57.234Z,83.78
2022-12-09T01:27:07.701Z,83.78
2022-12-09T01:27:17.906Z,83.78
2022-12-09T01:27:28.312Z,83.78
2022-12-09T01:27:38.658Z,83.78
2022-12-09T01:27:48.863Z,83.78
2022-12-09T01:27:59.134Z,83.78
2022-12-09T01:28:09.347Z,83.78
2022-12-09T01:28:19.770Z,83.78
2022-12-09T01:28:29.998Z,83.78
2022-12-09T01:28:40.383Z,83.78
2022-12-09T01:28:50.701Z,83.78
2022-12-09T01:29:00.947Z,83.89
2022-12-09T01:29:11.480Z,83.78
2022-12-09T01:29:21.789Z,83.89
2022-12-09T01:29:31.793Z,83.78
2022-12-09T01:29:42.024Z,83.89
2022-12-09T01:29:52.273Z,83.89
2022-12-09T01:30:03.092Z,83.89
2022-12-09T01:30:13.047Z,83.89
2022-12-09T01:30:23.236Z,83.89
2022-12-09T01:30:33.428Z,83.89
2022-12-09T01:30:43.655Z,83.89
2022-12-09T01:30:54.271Z,83.89
2022-12-09T01:31:04.665Z,83.89
2022-12-09T01:31:14.730Z,83.89
2022-12-09T01:31:24.956Z,83.89
2022-12-09T01:31:35.269Z,83.89
2022-12-09T01:31:45.903Z,83.89
2022-12-09T01:31:55.855Z,83.89
2022-12-09T01:32:06.441Z,83.89
2022-12-09T01:32:16.750Z,83.89
2022-12-09T01:32:26.988Z,83.89
2022-12-09T01:32:37.253Z,83.89
2022-12-09T01:32:47.374Z,83.89
2022-12-09T01:32:58.048Z,83.89
2022-12-09T01:33:08.289Z,83.89
2022-12-09T01:33:18.657Z,83.89
2022-12-09T01:33:28.887Z,83.89
2022-12-09T01:33:39.236Z,83.89
2022-12-09T01:33:49.845Z,83.89
2022-12-09T01:33:59.975Z,83.89
2022-12-09T01:34:10.218Z,84.00
2022-12-09T01:34:20.309Z,84.00
2022-12-09T01:34:30.632Z,84.00
2022-12-09T01:34:40.973Z,83.89
2022-12-09T01:34:51.242Z,84.00
2022-12-09T01:35:01.427Z,83.89
2022-12-09T01:35:11.767Z,83.89
2022-12-09T01:35:22.304Z,83.89
2022-12-09T01:35:32.364Z,83.89
2022-12-09T01:35:42.625Z,83.89
2022-12-09T01:35:53.159Z,83.89
2022-12-09T01:36:03.539Z,83.89
2022-12-09T01:36:13.569Z,83.89
2022-12-09T01:36:24.029Z,83.89
2022-12-09T01:36:34.327Z,83.89
2022-12-09T01:36:44.690Z,84.00
2022-12-09T01:36:54.729Z,83.89
2022-12-09T01:37:05.174Z,83.89
2022-12-09T01:37:15.163Z,83.89
2022-12-09T01:37:25.441Z,83.89
2022-12-09T01:37:35.663Z,84.00
2022-12-09T01:37:45.886Z,84.00
2022-12-09T01:37:56.263Z,84.00
2022-12-09T01:38:06.487Z,84.00
2022-12-09T01:38:16.726Z,84.00
2022-12-09T01:38:27.161Z,84.00
2022-12-09T01:38:37.346Z,84.00
2022-12-09T01:38:47.918Z,84.00
2022-12-09T01:38:58.261Z,84.00
2022-12-09T01:39:08.354Z,84.00
2022-12-09T01:39:18.616Z,84.00
2022-12-09T01:39:29.032Z,84.00
2022-12-09T01:39:39.434Z,84.00
2022-12-09T01:39:49.625Z,84.00
2022-12-09T01:39:59.894Z,84.10
2022-12-09T01:40:10.880Z,84.10
2022-12-09T01:40:20.769Z,84.10
2022-12-09T01:40:31.040Z,84.10
2022-12-09T01:40:41.255Z,84.10
2022-12-09T01:40:51.448Z,84.10
2022-12-09T01:41:01.700Z,84.10
2022-12-09T01:41:12.202Z,84.10
2022-12-09T01:41:22.263Z,84.10
2022-12-09T01:41:32.454Z,84.10
2022-12-09T01:41:42.684Z,84.10
2022-12-09T01:41:52.978Z,84.10
2022-12-09T01:42:03.288Z,84.10
2022-12-09T01:42:13.768Z,84.10
2022-12-09T01:42:24.028Z,84.10
2022-12-09T01:42:34.037Z,84.10
2022-12-09T01:42:44.287Z,84.10
2022-12-09T01:42:54.827Z,84.10
2022-12-09T01:43:04.812Z,84.10
2022-12-09T01:43:15.462Z,84.10
2022-12-09T01:43:25.633Z,84.10
2022-12-09T01:43:35.895Z,84.10
2022-12-09T01:43:46.086Z,84.10
2022-12-09T01:43:56.322Z,84.10
2022-12-09T01:44:06.577Z,84.10
2022-12-09T01:44:16.995Z,84.20
2022-12-09T01:44:27.280Z,84.20
2022-12-09T01:44:37.550Z,84.20
2022-12-09T01:44:47.916Z,84.20
2022-12-09T01:44:57.900Z,84.20
2022-12-09T01:45:08.146Z,84.10
2022-12-09T01:45:18.538Z,84.10
2022-12-09T01:45:28.764Z,84.10
2022-12-09T01:45:38.978Z,84.10
2022-12-09T01:45:49.248Z,84.10
2022-12-09T01:45:59.467Z,84.10
2022-12-09T01:46:09.931Z,84.10
2022-12-09T01:46:20.355Z,84.10
2022-12-09T01:46:30.730Z,84.10
2022-12-09T01:46:41.261Z,84.10
2022-12-09T01:46:51.451Z,84.10
2022-12-09T01:47:01.763Z,84.10
2022-12-09T01:47:12.064Z,84.10
2022-12-09T01:47:22.256Z,84.00
2022-12-09T01:47:32.875Z,84.00
2022-12-09T01:47:42.971Z,84.00
2022-12-09T01:47:53.414Z,84.00
2022-12-09T01:48:03.677Z,84.00
2022-12-09T01:48:13.678Z,84.00
2022-12-09T01:48:24.362Z,84.00
2022-12-09T01:48:34.375Z,84.00
2022-12-09T01:48:44.772Z,84.00
2022-12-09T01:48:55.289Z,84.10
2022-12-09T01:49:05.733Z,84.00
2022-12-09T01:49:15.585Z,84.00
2022-12-09T01:49:26.020Z,84.10
2022-12-09T01:49:36.258Z,84.00
2022-12-09T01:49:46.506Z,84.00
2022-12-09T01:49:56.709Z,84.00
2022-12-09T01:50:07.525Z,84.10
2022-12-09T01:50:17.629Z,84.00
2022-12-09T01:50:27.626Z,84.10
2022-12-09T01:50:37.896Z,84.10
2022-12-09T01:50:48.136Z,84.10
2022-12-09T01:50:58.383Z,84.10
2022-12-09T01:51:08.787Z,84.10
2022-12-09T01:51:19.010Z,84.10
2022-12-09T01:51:30.511Z,84.10
2022-12-09T01:51:39.673Z,84.10
2022-12-09T01:51:49.877Z,84.10
2022-12-09T01:52:00.320Z,84.10
2022-12-09T01:52:10.473Z,84.10
2022-12-09T01:52:20.846Z,84.10
2022-12-09T01:52:31.168Z,84.10
2022-12-09T01:52:41.497Z,84.00
2022-12-09T01:52:51.722Z,84.00
2022-12-09T01:53:02.179Z,84.00
2022-12-09T01:53:12.446Z,84.00
2022-12-09T01:53:22.682Z,84.10
2022-12-09T01:53:32.847Z,84.10
2022-12-09T01:53:43.384Z,84.10
2022-12-09T01:53:53.625Z,84.10
2022-12-09T01:54:03.706Z,84.10
2022-12-09T01:54:14.009Z,84.10
2022-12-09T01:54:24.543Z,84.10
2022-12-09T01:54:34.685Z,84.10
2022-12-09T01:54:44.960Z,84.10
2022-12-09T01:54:55.359Z,84.10
2022-12-09T01:55:05.568Z,84.10
2022-12-09T01:55:15.814Z,84.10
2022-12-09T01:55:26.052Z,84.10
2022-12-09T01:55:36.264Z,84.10
2022-12-09T01:55:46.502Z,84.10
2022-12-09T01:55:56.983Z,84.10
2022-12-09T01:56:07.170Z,84.10
2022-12-09T01:56:17.566Z,84.10
2022-12-09T01:56:27.798Z,84.10
2022-12-09T01:56:38.149Z,84.10
2022-12-09T01:56:48.334Z,84.10
2022-12-09T01:56:58.703Z,84.10
2022-12-09T01:57:09.026Z,84.10
2022-12-09T01:57:19.217Z,84.10
2022-12-09T01:57:29.622Z,84.10
2022-12-09T01:57:39.861Z,84.10
2022-12-09T01:57:50.053Z,84.10
2022-12-09T01:58:00.297Z,84.10
2022-12-09T01:58:10.530Z,84.20
2022-12-09T01:58:20.850Z,84.20
2022-12-09T01:58:31.062Z,84.20
2022-12-09T01:58:41.289Z,84.20
2022-12-09T01:58:51.616Z,84.20
2022-12-09T01:59:01.831Z,84.20
2022-12-09T01:59:12.210Z,84.20
2022-12-09T01:59:22.491Z,84.20
2022-12-09T01:59:32.865Z,84.20
2022-12-09T01:59:43.128Z,84.20
2022-12-09T01:59:53.409Z,84.20
2022-12-09T02:00:03.992Z,84.20
2022-12-09T02:00:14.064Z,84.20
2022-12-09T02:00:24.714Z,84.20
2022-12-09T02:00:34.756Z,84.20
2022-12-09T02:00:45.190Z,84.20
2022-12-09T02:00:55.513Z,84.10
2022-12-09T02:01:05.591Z,84.10
2022-12-09T02:01:15.912Z,84.10
2022-12-09T02:01:26.227Z,84.10
2022-12-09T02:01:36.799Z,84.10
2022-12-09T02:01:47.188Z,84.10
2022-12-09T02:01:57.400Z,84.20
2022-12-09T02:02:07.666Z,84.20
2022-12-09T02:02:18.033Z,84.20
2022-12-09T02:02:28.774Z,84.20
2022-12-09T02:02:39.102Z,84.20
2022-12-09T02:02:49.551Z,84.20
2022-12-09T02:02:59.630Z,84.20
2022-12-09T02:03:09.880Z,84.20
2022-12-09T02:03:20.536Z,84.31
2022-12-09T02:03:30.753Z,84.31
2022-12-09T02:03:41.056Z,84.31
2022-12-09T02:03:51.598Z,84.41
2022-12-09T02:04:01.995Z,84.41
2022-12-09T02:04:11.963Z,84.41
2022-12-09T02:04:22.227Z,84.31
2022-12-09T02:04:32.878Z,84.31
2022-12-09T02:04:42.898Z,84.31
2022-12-09T02:04:53.374Z,84.31
2022-12-09T02:05:03.668Z,84.31
2022-12-09T02:05:13.862Z,84.31
2022-12-09T02:05:24.396Z,84.31
2022-12-09T02:05:34.429Z,84.20
2022-12-09T02:05:44.647Z,84.20
2022-12-09T02:05:55.159Z,84.20
2022-12-09T02:06:05.203Z,84.20
2022-12-09T02:06:15.568Z,84.20
2022-12-09T02:06:25.806Z,84.20
2022-12-09T02:06:36.011Z,84.20
2022-12-09T02:06:46.459Z,84.20
2022-12-09T02:06:56.858Z,84.20
2022-12-09T02:07:07.174Z,84.20
2022-12-09T02:07:17.406Z,84.10
2022-12-09T02:07:27.616Z,84.10
2022-12-09T02:07:38.347Z,84.20
2022-12-09T02:07:48.372Z,84.20
2022-12-09T02:07:58.640Z,84.20
2022-12-09T02:08:09.093Z,84.20
2022-12-09T02:08:19.461Z,84.10
2022-12-09T02:08:29.815Z,84.10
2022-12-09T02:08:39.699Z,84.10
2022-12-09T02:08:50.104Z,84.10
2022-12-09T02:09:00.274Z,84.10
2022-12-09T02:09:11.007Z,84.10
2022-12-09T02:09:21.119Z,84.10
2022-12-09T02:09:31.246Z,84.10
2022-12-09T02:09:41.581Z,84.10
2022-12-09T02:09:51.994Z,84.10
2022-12-09T02:10:02.480Z,84.10
2022-12-09T02:10:12.978Z,84.10
2022-12-09T02:10:22.798Z,84.10
2022-12-09T02:10:33.375Z,84.10
2022-12-09T02:10:43.406Z,84.10
2022-12-09T02:10:53.592Z,84.10
2022-12-09T02:11:03.911Z,84.10
2022-12-09T02:11:14.292Z,84.10
2022-12-09T02:11:24.889Z,84.10
2022-12-09T02:11:35.062Z,84.10
2022-12-09T02:11:45.339Z,84.10
2022-12-09T02:11:55.579Z,84.10
2022-12-09T02:12:05.904Z,84.10
2022-12-09T02:12:16.173Z,84.10
2022-12-09T02:12:26.509Z,84.10